Neopit, Wisconsin
Current Conditions -  °F | °C
As of 3:15 PM on Tuesday 21 Oct 2014 (Local Time) from KAIG Reporting Station
Clear Clear  
Wind Chill: 49°   Ceiling: Unl
Heat Index: 49°   Visibility: 10mi
Dew Point: 34°   Wind: 0mph
Humidity: 56%   Direction: NA
Pressure: 30.21"   Gusts: NA
Location:  44.98°N, 88.83°W
Report Text: KAIG 212015Z AUTO 00000KT 10SM CLR 09/01 A3021 RMK AO2 T00930010
Loading
Personal Weather Stations






























Interactive Weather Map
Tropical Storm Tracking
New forecast layout! Learn more

10-Day Weather Forecast

Advertisements
Track Severe Weather on mobile